createdAt,value
2022-08-30T00:02:25.473Z,99.90
2022-08-30T00:04:54.417Z,99.90
2022-08-30T00:07:22.195Z,99.90
2022-08-30T00:09:49.333Z,99.90
2022-08-30T00:12:16.475Z,99.90
2022-08-30T00:14:43.797Z,99.90
2022-08-30T00:17:11.425Z,99.90
2022-08-30T00:19:38.701Z,99.90
2022-08-30T00:22:07.302Z,99.90
2022-08-30T00:24:34.299Z,99.90
2022-08-30T00:27:01.298Z,99.90
2022-08-30T00:29:28.427Z,99.90
2022-08-30T00:31:55.391Z,99.90
2022-08-30T00:34:23.376Z,99.90
2022-08-30T00:36:50.453Z,99.90
2022-08-30T00:39:19.283Z,99.90
2022-08-30T00:41:47.662Z,99.90
2022-08-30T00:44:14.833Z,99.90
2022-08-30T00:46:43.177Z,99.90
2022-08-30T00:49:13.920Z,99.90
2022-08-30T00:51:43.260Z,99.90
2022-08-30T00:54:12.621Z,99.90
2022-08-30T00:56:40.468Z,99.90
2022-08-30T00:59:08.989Z,99.90
2022-08-30T01:01:38.125Z,99.90
2022-08-30T01:04:09.279Z,99.90
2022-08-30T01:06:37.559Z,99.90
2022-08-30T01:09:06.816Z,99.90
2022-08-30T01:11:35.962Z,99.90
2022-08-30T01:14:04.832Z,99.90
2022-08-30T01:16:33.896Z,99.90
2022-08-30T01:19:03.074Z,99.90
2022-08-30T01:21:46.413Z,99.90
2022-08-30T01:24:14.236Z,99.90
2022-08-30T01:26:42.203Z,99.90
2022-08-30T01:29:13.685Z,99.90
2022-08-30T01:31:40.680Z,99.90
2022-08-30T01:34:08.213Z,99.90
2022-08-30T01:36:42.937Z,99.90
2022-08-30T01:39:17.418Z,99.90
2022-08-30T01:41:45.408Z,99.90
2022-08-30T01:44:13.155Z,99.90
2022-08-30T01:46:46.247Z,99.90
2022-08-30T01:49:16.999Z,99.90
2022-08-30T01:51:45.972Z,99.90
2022-08-30T01:54:13.019Z,99.90
2022-08-30T01:56:40.105Z,99.90
2022-08-30T01:59:07.078Z,99.90
2022-08-30T02:01:37.095Z,99.90
2022-08-30T02:04:05.329Z,99.90
2022-08-30T02:06:32.371Z,99.90
2022-08-30T02:08:59.763Z,99.90
2022-08-30T02:11:27.029Z,99.90
2022-08-30T02:13:54.040Z,99.90
2022-08-30T02:16:23.780Z,99.90
2022-08-30T02:18:55.036Z,99.90
2022-08-30T02:21:23.641Z,99.90
2022-08-30T02:23:51.310Z,99.90
2022-08-30T02:26:18.947Z,99.90
2022-08-30T02:28:50.105Z,99.90
2022-08-30T02:31:20.402Z,99.90
2022-08-30T02:33:50.534Z,99.90
2022-08-30T02:36:17.980Z,99.90
2022-08-30T02:38:45.274Z,99.90
2022-08-30T02:41:12.155Z,99.90
2022-08-30T02:43:39.100Z,99.90
2022-08-30T02:46:06.623Z,99.90
2022-08-30T02:48:34.180Z,99.90
2022-08-30T02:51:09.632Z,99.90
2022-08-30T02:53:40.097Z,99.90
2022-08-30T02:56:07.684Z,99.90
2022-08-30T02:58:34.557Z,99.90
2022-08-30T03:01:01.938Z,99.90
2022-08-30T03:03:29.042Z,99.90
2022-08-30T03:05:55.935Z,99.90
2022-08-30T03:08:23.037Z,99.90
2022-08-30T03:10:50.392Z,99.90
2022-08-30T03:13:17.473Z,99.90
2022-08-30T03:15:44.523Z,99.90
2022-08-30T03:18:11.346Z,99.90
2022-08-30T03:20:38.782Z,99.90
2022-08-30T03:23:05.735Z,99.90
2022-08-30T03:25:33.940Z,99.90
2022-08-30T03:28:01.080Z,99.90
2022-08-30T03:30:28.149Z,99.90
2022-08-30T03:32:55.026Z,99.90
2022-08-30T03:35:21.881Z,99.90
2022-08-30T03:37:49.701Z,99.90
2022-08-30T03:40:23.318Z,99.90
2022-08-30T03:42:50.718Z,99.90
2022-08-30T03:45:19.122Z,99.90
2022-08-30T03:47:46.128Z,99.90
2022-08-30T03:50:14.412Z,99.90
2022-08-30T03:52:41.387Z,99.90
2022-08-30T03:55:08.893Z,99.90
2022-08-30T03:57:36.673Z,99.90
2022-08-30T04:00:06.672Z,99.90
2022-08-30T04:02:33.614Z,99.90
2022-08-30T04:05:00.569Z,99.90
2022-08-30T04:07:27.437Z,99.90
2022-08-30T04:09:54.349Z,99.90
2022-08-30T04:12:22.953Z,99.90
2022-08-30T04:14:50.266Z,99.90
2022-08-30T04:17:17.152Z,99.90
2022-08-30T04:19:43.996Z,99.90
2022-08-30T04:22:10.975Z,99.90
2022-08-30T04:24:38.488Z,99.90
2022-08-30T04:27:05.631Z,99.90
2022-08-30T04:29:33.752Z,99.90
2022-08-30T04:32:00.763Z,99.90
2022-08-30T04:34:27.825Z,99.90
2022-08-30T04:36:54.664Z,99.90
2022-08-30T04:39:21.535Z,99.90
2022-08-30T04:41:48.538Z,99.90
2022-08-30T04:44:19.654Z,99.90
2022-08-30T04:46:47.170Z,99.90
2022-08-30T04:49:14.117Z,99.90
2022-08-30T04:51:41.263Z,99.90
2022-08-30T04:54:08.229Z,99.90
2022-08-30T04:56:35.236Z,99.90
2022-08-30T04:59:04.379Z,99.90
2022-08-30T05:01:35.260Z,99.90
2022-08-30T05:04:12.049Z,99.90
2022-08-30T05:06:38.939Z,99.90
2022-08-30T05:09:05.926Z,99.90
2022-08-30T05:11:33.050Z,99.90
2022-08-30T05:14:00.035Z,99.90
2022-08-30T05:16:27.370Z,99.90
2022-08-30T05:18:54.663Z,99.90
2022-08-30T05:21:26.655Z,99.90
2022-08-30T05:23:56.063Z,99.90
2022-08-30T05:26:25.840Z,99.90
2022-08-30T05:28:53.097Z,99.90
2022-08-30T05:31:29.957Z,99.90
2022-08-30T05:33:57.171Z,99.90
2022-08-30T05:36:26.585Z,99.90
2022-08-30T05:38:54.245Z,99.90
2022-08-30T05:41:22.931Z,99.90
2022-08-30T05:43:57.972Z,99.90
2022-08-30T05:46:25.859Z,99.90
2022-08-30T05:48:52.811Z,99.90
2022-08-30T05:51:23.243Z,99.90
2022-08-30T05:53:51.709Z,99.90
2022-08-30T05:56:21.905Z,99.90
2022-08-30T05:58:52.384Z,99.90
2022-08-30T06:01:31.909Z,99.90
2022-08-30T06:04:03.887Z,99.90
2022-08-30T06:06:33.169Z,99.90
2022-08-30T06:09:00.083Z,99.90
2022-08-30T06:11:28.120Z,99.90
2022-08-30T06:13:55.859Z,99.90
2022-08-30T06:16:26.058Z,99.90
2022-08-30T06:18:54.279Z,99.90
2022-08-30T06:21:26.905Z,99.90
2022-08-30T06:23:54.384Z,99.90
2022-08-30T06:26:21.936Z,99.90
2022-08-30T06:28:49.286Z,99.90
2022-08-30T06:31:18.429Z,99.90
2022-08-30T06:33:46.433Z,99.90
2022-08-30T06:36:17.915Z,99.90
2022-08-30T06:38:45.504Z,99.90
2022-08-30T06:41:16.099Z,99.90
2022-08-30T06:43:48.698Z,99.90
2022-08-30T06:46:22.904Z,99.90
2022-08-30T06:48:50.024Z,99.90
2022-08-30T06:51:21.400Z,99.90
2022-08-30T06:53:51.886Z,99.90
2022-08-30T06:56:20.210Z,99.90
2022-08-30T06:58:47.677Z,99.90
2022-08-30T07:01:21.166Z,99.90
2022-08-30T07:03:48.555Z,99.90
2022-08-30T07:06:16.363Z,99.90
2022-08-30T07:08:45.755Z,99.90
2022-08-30T07:11:12.779Z,99.90
2022-08-30T07:13:40.000Z,99.90
2022-08-30T07:16:14.826Z,99.90
2022-08-30T07:18:50.812Z,99.90
2022-08-30T07:21:24.245Z,99.90
2022-08-30T07:23:55.438Z,99.90
2022-08-30T07:26:26.174Z,99.90
2022-08-30T07:28:55.886Z,99.90
2022-08-30T07:31:24.206Z,99.90
2022-08-30T07:33:51.413Z,99.90
2022-08-30T07:36:19.572Z,99.90
2022-08-30T07:38:47.179Z,99.90
2022-08-30T07:41:19.816Z,99.90
2022-08-30T07:43:47.551Z,99.90
2022-08-30T07:46:15.815Z,99.90
2022-08-30T07:48:44.261Z,99.90
2022-08-30T07:51:16.953Z,99.90
2022-08-30T07:53:43.983Z,99.90
2022-08-30T07:56:11.169Z,99.90
2022-08-30T07:58:38.339Z,99.90
2022-08-30T08:01:07.606Z,99.90
2022-08-30T08:03:35.473Z,99.90
2022-08-30T08:06:07.555Z,99.90
2022-08-30T08:08:34.677Z,99.90
2022-08-30T08:11:20.887Z,99.90
2022-08-30T08:13:53.443Z,99.90
2022-08-30T08:16:27.157Z,99.90
2022-08-30T08:18:54.817Z,99.90
2022-08-30T08:21:24.133Z,99.90
2022-08-30T08:23:51.459Z,99.90
2022-08-30T08:26:19.186Z,99.90
2022-08-30T08:28:47.259Z,99.90
2022-08-30T08:31:33.650Z,99.90
2022-08-30T08:34:03.174Z,99.90
2022-08-30T08:36:33.297Z,99.90
2022-08-30T08:39:01.228Z,99.90
2022-08-30T08:41:47.024Z,99.90
2022-08-30T08:44:34.801Z,99.90
2022-08-30T08:47:16.123Z,99.90
2022-08-30T08:49:46.738Z,99.90
2022-08-30T08:52:38.628Z,99.90
2022-08-30T08:55:14.805Z,99.90
2022-08-30T08:57:42.381Z,99.90
2022-08-30T09:00:12.420Z,99.90
2022-08-30T09:02:55.850Z,99.90
2022-08-30T09:05:26.123Z,99.90
2022-08-30T09:08:04.578Z,99.90
2022-08-30T09:10:49.813Z,99.90
2022-08-30T09:13:18.851Z,99.90
2022-08-30T09:15:48.880Z,99.90
2022-08-30T09:18:39.954Z,99.90
2022-08-30T09:21:09.529Z,99.90
2022-08-30T09:23:36.704Z,99.90
2022-08-30T09:26:06.770Z,99.90
2022-08-30T09:28:44.229Z,99.90
2022-08-30T09:31:48.960Z,99.90
2022-08-30T09:34:20.435Z,99.90
2022-08-30T09:36:53.987Z,99.90
2022-08-30T09:39:33.687Z,99.90
2022-08-30T09:42:25.623Z,99.90
2022-08-30T09:44:53.979Z,99.90
2022-08-30T09:47:27.895Z,99.90
2022-08-30T09:50:17.515Z,99.90
2022-08-30T09:52:55.573Z,99.90
2022-08-30T09:55:44.431Z,99.90
2022-08-30T09:58:40.274Z,99.90
2022-08-30T10:01:15.782Z,99.90
2022-08-30T10:04:09.512Z,99.90
2022-08-30T10:06:54.322Z,99.90
2022-08-30T10:09:36.264Z,99.90
2022-08-30T10:12:15.420Z,99.90
2022-08-30T10:15:01.132Z,99.90
2022-08-30T10:17:39.058Z,99.90
2022-08-30T10:20:26.080Z,99.90
2022-08-30T10:23:04.746Z,99.90
2022-08-30T10:25:36.439Z,99.90
2022-08-30T10:28:03.852Z,99.90
2022-08-30T10:30:36.381Z,99.90
2022-08-30T10:33:08.909Z,99.90
2022-08-30T10:35:49.427Z,99.90
2022-08-30T10:38:25.549Z,99.90
2022-08-30T10:41:26.060Z,99.90
2022-08-30T10:44:30.477Z,99.90
2022-08-30T10:47:18.503Z,99.90
2022-08-30T10:49:55.676Z,99.90
2022-08-30T10:52:26.235Z,99.90
2022-08-30T10:55:19.105Z,99.90
2022-08-30T10:57:47.515Z,99.90
2022-08-30T11:00:25.407Z,99.90
2022-08-30T11:03:24.505Z,99.90
2022-08-30T11:06:12.908Z,99.90
2022-08-30T11:09:02.508Z,99.90
2022-08-30T11:11:47.486Z,99.90
2022-08-30T11:14:18.237Z,99.90
2022-08-30T11:16:48.784Z,99.90
2022-08-30T11:19:26.567Z,99.30
2022-08-30T11:22:28.773Z,99.10
2022-08-30T11:25:09.795Z,99.40
2022-08-30T11:27:52.863Z,98.10
2022-08-30T11:33:13.067Z,96.90
2022-08-30T11:35:48.677Z,95.40
2022-08-30T11:38:42.010Z,95.10
2022-08-30T11:41:30.282Z,93.40
2022-08-30T11:44:21.733Z,92.40
2022-08-30T11:46:49.870Z,92.70
2022-08-30T11:49:19.877Z,90.10
2022-08-30T11:52:27.359Z,90.40
2022-08-30T11:55:31.714Z,88.50
2022-08-30T11:58:37.296Z,86.90
2022-08-30T12:01:41.809Z,84.90
2022-08-30T12:04:19.824Z,84.40
2022-08-30T12:06:49.304Z,84.40
2022-08-30T12:09:26.522Z,82.60
2022-08-30T12:12:09.802Z,81.90
2022-08-30T12:14:49.027Z,84.70
2022-08-30T12:17:52.177Z,82.70
2022-08-30T12:20:25.320Z,79.30
2022-08-30T12:22:53.362Z,81.00
2022-08-30T12:25:28.923Z,81.80
2022-08-30T12:28:30.267Z,81.10
2022-08-30T12:31:14.407Z,79.60
2022-08-30T12:33:45.441Z,77.90
2022-08-30T12:36:34.136Z,79.00
2022-08-30T12:39:18.416Z,76.70
2022-08-30T12:41:45.963Z,75.80
2022-08-30T12:44:28.091Z,78.20
2022-08-30T12:47:03.068Z,80.10
2022-08-30T12:49:35.653Z,79.00
2022-08-30T12:52:28.922Z,77.40
2022-08-30T12:55:23.002Z,78.00
2022-08-30T12:58:04.180Z,76.00
2022-08-30T13:00:35.886Z,75.60
2022-08-30T13:03:24.237Z,76.10
2022-08-30T13:05:53.151Z,76.20
2022-08-30T13:08:44.918Z,77.20
2022-08-30T13:11:25.091Z,78.80
2022-08-30T13:14:19.346Z,75.60
2022-08-30T13:16:46.851Z,73.70
2022-08-30T13:19:33.420Z,74.50
2022-08-30T13:22:01.881Z,71.80
2022-08-30T13:24:30.592Z,69.40
2022-08-30T13:27:04.377Z,69.40
2022-08-30T13:29:32.258Z,69.00
2022-08-30T13:31:59.364Z,68.70
2022-08-30T13:34:26.774Z,68.60
2022-08-30T13:36:57.230Z,66.90
2022-08-30T13:39:25.029Z,65.80
2022-08-30T13:41:52.450Z,64.60
2022-08-30T13:44:19.850Z,62.80
2022-08-30T13:46:54.511Z,62.00
2022-08-30T13:49:47.106Z,65.60
2022-08-30T13:52:25.776Z,63.40
2022-08-30T13:54:55.884Z,63.10
2022-08-30T14:00:17.934Z,59.80
2022-08-30T14:02:51.616Z,60.00
2022-08-30T14:10:59.717Z,59.90
2022-08-30T14:13:29.241Z,59.60
2022-08-30T14:18:46.727Z,58.50
2022-08-30T14:21:13.845Z,58.40
2022-08-30T14:23:40.684Z,57.10
2022-08-30T14:26:33.576Z,56.90
2022-08-30T14:29:02.879Z,56.00
2022-08-30T14:31:32.761Z,56.50
2022-08-30T14:34:01.907Z,56.30
2022-08-30T14:36:31.137Z,56.70
2022-08-30T14:38:58.473Z,57.60
2022-08-30T14:41:25.591Z,56.20
2022-08-30T14:43:53.040Z,55.50
2022-08-30T14:46:20.147Z,57.80
2022-08-30T14:48:47.109Z,56.20
2022-08-30T14:51:16.979Z,56.30
2022-08-30T14:53:44.499Z,55.90
2022-08-30T14:56:15.915Z,54.70
2022-08-30T14:58:43.426Z,52.90
2022-08-30T15:01:12.369Z,54.50
2022-08-30T15:03:40.682Z,54.70
2022-08-30T15:06:08.339Z,53.80
2022-08-30T15:08:37.800Z,53.90
2022-08-30T15:11:12.010Z,54.00
2022-08-30T15:13:40.289Z,52.70
2022-08-30T15:16:27.369Z,52.50
2022-08-30T15:18:55.254Z,51.00
2022-08-30T15:21:27.729Z,50.70
2022-08-30T15:23:54.901Z,51.00
2022-08-30T15:26:22.407Z,51.40
2022-08-30T15:28:49.761Z,51.90
2022-08-30T15:31:19.812Z,53.00
2022-08-30T15:33:46.750Z,53.20
2022-08-30T15:36:14.049Z,54.80
2022-08-30T15:38:42.428Z,54.90
2022-08-30T15:41:12.483Z,55.00
2022-08-30T15:43:43.545Z,56.10
2022-08-30T15:46:29.507Z,55.90
2022-08-30T15:49:00.707Z,55.10
2022-08-30T15:51:27.835Z,55.20
2022-08-30T15:53:54.775Z,56.20
2022-08-30T15:56:22.017Z,55.10
2022-08-30T15:58:49.126Z,55.20
2022-08-30T16:01:30.362Z,55.80
2022-08-30T16:03:59.109Z,56.30
2022-08-30T16:06:29.413Z,56.00
2022-08-30T16:08:57.227Z,55.80
2022-08-30T16:11:25.186Z,56.10
2022-08-30T16:13:56.945Z,55.70
2022-08-30T16:16:24.645Z,56.00
2022-08-30T16:18:53.901Z,56.40
2022-08-30T16:21:25.151Z,56.00
2022-08-30T16:23:55.167Z,56.30
2022-08-30T16:26:22.612Z,56.30
2022-08-30T16:28:49.850Z,57.50
2022-08-30T16:31:18.380Z,56.80
2022-08-30T16:33:46.463Z,57.10
2022-08-30T16:36:14.287Z,57.00
2022-08-30T16:38:41.421Z,56.50
2022-08-30T16:41:11.570Z,56.90
2022-08-30T16:43:39.598Z,56.60
2022-08-30T16:46:11.258Z,57.00
2022-08-30T16:48:39.435Z,57.40
2022-08-30T16:51:11.664Z,57.60
2022-08-30T16:53:40.095Z,58.10
2022-08-30T16:56:16.566Z,60.00
2022-08-30T16:58:44.734Z,59.50
2022-08-30T17:01:12.889Z,59.50
2022-08-30T17:03:40.773Z,60.40
2022-08-30T17:06:08.349Z,61.60
2022-08-30T17:08:35.391Z,61.30
2022-08-30T17:11:03.373Z,62.70
2022-08-30T17:13:31.013Z,62.60
2022-08-30T17:16:00.254Z,63.70
2022-08-30T17:18:27.185Z,64.60
2022-08-30T17:20:54.181Z,65.20
2022-08-30T17:23:22.358Z,66.50
2022-08-30T17:25:50.605Z,67.90
2022-08-30T17:28:17.918Z,68.50
2022-08-30T17:30:47.026Z,68.90
2022-08-30T17:33:15.193Z,69.10
2022-08-30T17:35:45.102Z,70.20
2022-08-30T17:38:12.432Z,70.70
2022-08-30T17:40:39.597Z,71.50
2022-08-30T17:43:08.002Z,72.30
2022-08-30T17:45:35.074Z,75.00
2022-08-30T17:48:02.736Z,77.30
2022-08-30T17:50:29.643Z,80.50
2022-08-30T17:53:00.595Z,81.60
2022-08-30T17:58:03.803Z,86.80
2022-08-30T18:00:30.882Z,88.00
2022-08-30T18:02:58.484Z,89.90
2022-08-30T18:05:25.666Z,91.10
2022-08-30T18:07:52.739Z,92.10
2022-08-30T18:12:48.212Z,94.20
2022-08-30T18:15:16.569Z,95.10
2022-08-30T18:17:47.668Z,96.00
2022-08-30T18:20:17.907Z,97.30
2022-08-30T18:22:45.069Z,97.90
2022-08-30T18:25:12.065Z,99.00
2022-08-30T18:27:39.359Z,99.90
2022-08-30T18:30:11.562Z,99.90
2022-08-30T18:32:38.870Z,99.90
2022-08-30T18:35:06.680Z,99.90
2022-08-30T18:37:36.290Z,99.90
2022-08-30T18:40:04.516Z,99.90
2022-08-30T18:42:31.958Z,99.90
2022-08-30T18:44:58.951Z,99.90
2022-08-30T18:47:36.335Z,99.90
2022-08-30T18:50:04.983Z,99.90
2022-08-30T18:52:32.715Z,99.90
2022-08-30T18:54:59.640Z,99.90
2022-08-30T18:57:26.877Z,99.90
2022-08-30T18:59:55.076Z,99.90
2022-08-30T19:02:21.949Z,99.90
2022-08-30T19:04:54.777Z,99.90
2022-08-30T19:07:28.937Z,99.90
2022-08-30T19:10:01.377Z,99.90
2022-08-30T19:12:28.713Z,99.90
2022-08-30T19:14:56.240Z,99.90
2022-08-30T19:17:24.000Z,99.90
2022-08-30T19:19:52.132Z,99.90
2022-08-30T19:22:21.085Z,99.90
2022-08-30T19:24:49.770Z,99.90
2022-08-30T19:27:19.214Z,99.90
2022-08-30T19:29:53.702Z,99.90
2022-08-30T19:32:21.460Z,99.90
2022-08-30T19:34:48.517Z,99.90
2022-08-30T19:37:18.487Z,99.90
2022-08-30T19:39:46.825Z,99.90
2022-08-30T19:42:14.207Z,99.90
2022-08-30T19:44:41.030Z,99.90
2022-08-30T19:47:08.174Z,99.90
2022-08-30T19:49:35.911Z,99.90
2022-08-30T19:52:03.553Z,99.90
2022-08-30T19:54:30.598Z,99.90
2022-08-30T19:56:57.548Z,99.90
2022-08-30T19:59:27.365Z,99.90
2022-08-30T20:01:56.707Z,99.90
2022-08-30T20:04:23.584Z,99.90
2022-08-30T20:06:51.092Z,99.90
2022-08-30T20:09:18.016Z,99.90
2022-08-30T20:11:44.982Z,99.90
2022-08-30T20:14:16.448Z,99.90
2022-08-30T20:16:43.472Z,99.90
2022-08-30T20:19:14.890Z,99.90
2022-08-30T20:21:41.798Z,99.90
2022-08-30T20:24:09.655Z,99.90
2022-08-30T20:26:37.860Z,99.90
2022-08-30T20:29:05.986Z,99.90
2022-08-30T20:31:33.674Z,99.90
2022-08-30T20:34:01.288Z,99.90
2022-08-30T20:36:28.242Z,99.90
2022-08-30T20:38:55.149Z,99.90
2022-08-30T20:41:22.432Z,99.90
2022-08-30T20:43:50.264Z,99.90
2022-08-30T20:46:19.545Z,99.90
2022-08-30T20:48:47.812Z,99.90
2022-08-30T20:51:17.752Z,99.90
2022-08-30T20:53:45.182Z,99.90
2022-08-30T20:56:15.560Z,99.90
2022-08-30T20:58:43.175Z,99.90
2022-08-30T21:01:11.587Z,99.90
2022-08-30T21:03:39.590Z,99.90
2022-08-30T21:06:07.553Z,99.90
2022-08-30T21:08:35.118Z,99.90
2022-08-30T21:11:02.022Z,99.90
2022-08-30T21:13:29.223Z,99.90
2022-08-30T21:16:00.611Z,99.90
2022-08-30T21:18:33.111Z,99.90
2022-08-30T21:21:12.425Z,99.90
2022-08-30T21:23:39.813Z,99.90
2022-08-30T21:26:07.717Z,99.90
2022-08-30T21:28:34.848Z,99.90
2022-08-30T21:31:07.970Z,99.90
2022-08-30T21:33:35.632Z,99.90
2022-08-30T21:36:23.061Z,99.90
2022-08-30T21:38:50.095Z,99.90
2022-08-30T21:41:17.172Z,99.90
2022-08-30T21:43:44.231Z,99.90
2022-08-30T21:46:11.308Z,99.90
2022-08-30T21:48:38.203Z,99.90
2022-08-30T21:51:09.863Z,99.90
2022-08-30T21:53:37.619Z,99.90
2022-08-30T21:56:25.275Z,99.90
2022-08-30T21:58:52.191Z,99.90
2022-08-30T22:01:24.824Z,99.90
2022-08-30T22:03:57.165Z,99.90
2022-08-30T22:06:30.960Z,99.90
2022-08-30T22:08:59.735Z,99.90
2022-08-30T22:11:28.514Z,99.90
2022-08-30T22:13:55.853Z,99.90
2022-08-30T22:16:23.745Z,99.90
2022-08-30T22:18:51.473Z,99.90
2022-08-30T22:21:25.078Z,99.90
2022-08-30T22:23:52.367Z,99.90
2022-08-30T22:26:20.695Z,99.90
2022-08-30T22:28:48.159Z,99.90
2022-08-30T22:31:16.573Z,99.90
2022-08-30T22:33:44.629Z,99.90
2022-08-30T22:36:33.029Z,99.90
2022-08-30T22:39:01.849Z,99.90
2022-08-30T22:41:31.687Z,99.90
2022-08-30T22:43:58.865Z,99.90
2022-08-30T22:46:34.624Z,99.90
2022-08-30T22:49:06.857Z,99.90
2022-08-30T22:51:34.530Z,99.90
2022-08-30T22:54:02.021Z,99.90
2022-08-30T22:56:29.523Z,99.90
2022-08-30T22:58:56.489Z,99.90
2022-08-30T23:01:29.888Z,99.90
2022-08-30T23:03:58.271Z,99.90
2022-08-30T23:06:25.535Z,99.90
2022-08-30T23:08:52.783Z,99.90
2022-08-30T23:11:20.184Z,99.90
2022-08-30T23:13:47.735Z,99.90
2022-08-30T23:16:15.795Z,99.90
2022-08-30T23:18:45.472Z,99.90
2022-08-30T23:21:16.164Z,99.90
2022-08-30T23:24:01.889Z,99.90
2022-08-30T23:26:47.830Z,99.90
2022-08-30T23:29:33.680Z,99.90
2022-08-30T23:32:19.173Z,99.90
2022-08-30T23:35:05.024Z,99.90
2022-08-30T23:37:53.116Z,99.90
2022-08-30T23:40:39.543Z,99.90
2022-08-30T23:43:25.690Z,99.90
2022-08-30T23:46:11.199Z,99.90
2022-08-30T23:49:05.803Z,99.90
2022-08-30T23:51:51.153Z,99.90
2022-08-30T23:54:36.331Z,99.90
2022-08-30T23:57:21.766Z,99.90
